createdAt,value
2019-04-30T00:00:38.154Z,10.90
2019-04-30T00:03:17.969Z,10.90
2019-04-30T00:05:45.110Z,10.90
2019-04-30T00:08:16.007Z,10.90
2019-04-30T00:10:46.425Z,10.90
2019-04-30T00:13:20.686Z,10.90
2019-04-30T00:15:52.719Z,10.90
2019-04-30T00:18:20.319Z,10.90
2019-04-30T00:20:51.584Z,10.90
2019-04-30T00:23:22.668Z,10.90
2019-04-30T00:25:58.348Z,10.90
2019-04-30T00:28:25.673Z,10.80
2019-04-30T00:30:56.182Z,10.80
2019-04-30T00:33:27.746Z,10.80
2019-04-30T00:35:58.190Z,10.80
2019-04-30T00:38:29.630Z,10.80
2019-04-30T00:41:01.866Z,10.80
2019-04-30T00:43:32.307Z,10.70
2019-04-30T00:46:02.463Z,10.70
2019-04-30T00:48:32.679Z,10.80
2019-04-30T00:51:07.431Z,10.80
2019-04-30T00:53:35.913Z,10.70
2019-04-30T00:56:06.134Z,10.70
2019-04-30T00:58:37.524Z,10.70
2019-04-30T01:01:25.469Z,10.70
2019-04-30T01:04:01.451Z,10.70
2019-04-30T01:06:31.603Z,10.70
2019-04-30T01:09:05.428Z,10.70
2019-04-30T01:11:35.571Z,10.70
2019-04-30T01:14:06.951Z,10.60
2019-04-30T01:16:37.106Z,10.70
2019-04-30T01:19:11.423Z,10.60
2019-04-30T01:21:47.053Z,10.60
2019-04-30T01:24:12.363Z,10.60
2019-04-30T01:26:42.524Z,10.60
2019-04-30T01:29:12.691Z,10.60
2019-04-30T01:31:43.031Z,10.70
2019-04-30T01:34:14.160Z,10.70
2019-04-30T01:36:50.725Z,10.60
2019-04-30T01:39:16.415Z,10.60
2019-04-30T01:41:48.626Z,10.70
2019-04-30T01:44:19.500Z,10.70
2019-04-30T01:46:51.653Z,10.70
2019-04-30T01:49:25.710Z,10.60
2019-04-30T01:51:57.362Z,10.60
2019-04-30T01:54:26.847Z,10.60
2019-04-30T01:57:11.683Z,10.60
2019-04-30T02:00:19.587Z,10.60
2019-04-30T02:02:49.952Z,10.60
2019-04-30T02:05:20.109Z,10.60
2019-04-30T02:07:50.266Z,10.60
2019-04-30T02:10:20.552Z,10.60
2019-04-30T02:12:50.776Z,10.60
2019-04-30T02:15:20.956Z,10.60
2019-04-30T02:17:52.077Z,10.60
2019-04-30T02:20:22.230Z,10.50
2019-04-30T02:22:52.411Z,10.50
2019-04-30T02:25:22.579Z,10.50
2019-04-30T02:27:52.799Z,10.50
2019-04-30T02:30:22.968Z,10.50
2019-04-30T02:32:53.196Z,10.60
2019-04-30T02:35:50.090Z,10.60
2019-04-30T02:38:30.251Z,10.50
2019-04-30T02:41:01.924Z,10.50
2019-04-30T02:43:33.641Z,10.50
2019-04-30T02:46:05.099Z,10.50
2019-04-30T02:48:39.902Z,10.50
2019-04-30T02:51:12.484Z,10.40
2019-04-30T02:54:24.173Z,10.40
2019-04-30T02:57:14.476Z,10.40
2019-04-30T03:00:02.468Z,10.40
2019-04-30T03:02:34.237Z,10.40
2019-04-30T03:05:05.248Z,10.40
2019-04-30T03:07:35.409Z,10.40
2019-04-30T03:10:09.788Z,10.40
2019-04-30T03:12:40.454Z,10.40
2019-04-30T03:15:10.773Z,10.40
2019-04-30T03:18:04.960Z,10.40
2019-04-30T03:20:41.653Z,10.40
2019-04-30T03:23:11.800Z,10.40
2019-04-30T03:25:41.944Z,10.40
2019-04-30T03:28:13.216Z,10.40
2019-04-30T03:30:43.416Z,10.30
2019-04-30T03:33:13.695Z,10.30
2019-04-30T03:35:48.135Z,10.40
2019-04-30T03:38:15.887Z,10.40
2019-04-30T03:40:46.169Z,10.40
2019-04-30T03:43:16.328Z,10.40
2019-04-30T03:45:46.510Z,10.40
2019-04-30T03:48:19.802Z,10.40
2019-04-30T03:50:53.777Z,10.30
2019-04-30T03:53:20.431Z,10.30
2019-04-30T03:55:50.853Z,10.30
2019-04-30T03:58:21.647Z,10.30
2019-04-30T04:01:10.101Z,10.30
2019-04-30T04:04:00.483Z,10.30
2019-04-30T04:06:39.479Z,10.30
2019-04-30T04:09:39.953Z,10.20
2019-04-30T04:12:22.034Z,10.20
2019-04-30T04:14:53.394Z,10.20
2019-04-30T04:17:23.708Z,10.20
2019-04-30T04:19:53.878Z,10.20
2019-04-30T04:22:24.035Z,10.10
2019-04-30T04:24:54.230Z,10.10
2019-04-30T04:27:24.378Z,10.20
2019-04-30T04:29:54.536Z,10.10
2019-04-30T04:32:24.767Z,10.10
2019-04-30T04:34:54.996Z,10.10
2019-04-30T04:37:25.194Z,10.20
2019-04-30T04:39:55.376Z,10.20
2019-04-30T04:42:25.520Z,10.20
2019-04-30T04:44:59.274Z,10.10
2019-04-30T04:47:30.882Z,10.10
2019-04-30T04:50:01.196Z,10.10
2019-04-30T04:52:31.888Z,10.10
2019-04-30T04:55:02.166Z,10.10
2019-04-30T04:57:32.403Z,10.10
2019-04-30T05:00:07.449Z,10.10
2019-04-30T05:03:00.374Z,10.10
2019-04-30T05:05:30.543Z,10.20
2019-04-30T05:08:00.735Z,10.10
2019-04-30T05:10:31.011Z,10.20
2019-04-30T05:13:01.175Z,10.10
2019-04-30T05:15:31.348Z,10.10
2019-04-30T05:18:02.670Z,10.10
2019-04-30T05:20:32.843Z,10.20
2019-04-30T05:23:03.013Z,10.20
2019-04-30T05:25:34.011Z,10.20
2019-04-30T05:28:04.399Z,10.30
2019-04-30T05:30:34.567Z,10.30
2019-04-30T05:33:04.731Z,10.30
2019-04-30T05:35:34.913Z,10.40
2019-04-30T05:38:05.052Z,10.40
2019-04-30T05:40:35.237Z,10.40
2019-04-30T05:43:05.427Z,10.40
2019-04-30T05:45:35.593Z,10.40
2019-04-30T05:48:06.273Z,10.50
2019-04-30T05:50:36.719Z,10.50
2019-04-30T05:53:08.888Z,10.60
2019-04-30T05:55:39.482Z,10.60
2019-04-30T05:58:09.760Z,10.60
2019-04-30T06:00:40.210Z,10.70
2019-04-30T06:03:10.420Z,10.70
2019-04-30T06:05:40.579Z,10.70
2019-04-30T06:08:13.203Z,10.70
2019-04-30T06:10:51.828Z,10.70
2019-04-30T06:13:26.396Z,10.70
2019-04-30T06:15:59.598Z,10.80
2019-04-30T06:18:29.855Z,10.80
2019-04-30T06:21:00.826Z,10.90
2019-04-30T06:23:30.996Z,11.00
2019-04-30T06:26:09.422Z,11.00
2019-04-30T06:28:33.816Z,11.10
2019-04-30T06:31:04.270Z,11.10
2019-04-30T06:33:34.552Z,11.10
2019-04-30T06:36:04.717Z,11.20
2019-04-30T06:38:34.903Z,11.20
2019-04-30T06:41:05.091Z,11.20
2019-04-30T06:43:35.363Z,11.30
2019-04-30T06:46:05.549Z,11.40
2019-04-30T06:48:36.479Z,11.50
2019-04-30T06:51:06.675Z,11.60
2019-04-30T06:53:39.184Z,11.60
2019-04-30T06:56:09.438Z,11.60
2019-04-30T06:58:41.442Z,11.70
2019-04-30T07:01:11.483Z,11.60
2019-04-30T07:03:41.639Z,11.70
2019-04-30T07:06:11.815Z,11.70
2019-04-30T07:08:55.947Z,11.70
2019-04-30T07:11:32.499Z,11.80
2019-04-30T07:14:02.677Z,12.00
2019-04-30T07:16:32.838Z,12.10
2019-04-30T07:19:03.324Z,12.00
2019-04-30T07:21:36.372Z,12.00
2019-04-30T07:24:06.450Z,12.10
2019-04-30T07:26:38.803Z,12.40
2019-04-30T07:29:09.658Z,12.60
2019-04-30T07:31:40.259Z,12.80
2019-04-30T07:34:11.331Z,13.00
2019-04-30T07:36:46.912Z,13.00
2019-04-30T07:39:13.495Z,13.00
2019-04-30T07:41:45.515Z,13.00
2019-04-30T07:44:30.152Z,12.90
2019-04-30T07:46:49.233Z,12.70
2019-04-30T07:49:20.591Z,12.60
2019-04-30T07:51:52.885Z,12.70
2019-04-30T07:54:23.732Z,12.80
2019-04-30T07:56:54.101Z,13.10
2019-04-30T07:59:24.444Z,13.20
2019-04-30T08:02:06.636Z,13.50
2019-04-30T08:04:44.750Z,13.60
2019-04-30T08:07:15.076Z,13.60
2019-04-30T08:09:45.276Z,13.70
2019-04-30T08:12:21.884Z,13.80
2019-04-30T08:14:49.448Z,13.60
2019-04-30T08:17:19.447Z,13.60
2019-04-30T08:19:49.700Z,13.50
2019-04-30T08:22:19.880Z,13.80
2019-04-30T08:24:50.016Z,14.00
2019-04-30T08:27:20.254Z,14.20
2019-04-30T08:29:52.147Z,14.30
2019-04-30T08:32:24.411Z,14.30
2019-04-30T08:34:54.602Z,14.40
2019-04-30T08:37:24.727Z,14.20
2019-04-30T08:39:54.908Z,14.40
2019-04-30T08:42:31.756Z,14.40
2019-04-30T08:44:58.583Z,14.20
2019-04-30T08:47:29.211Z,14.30
2019-04-30T08:50:02.429Z,14.40
2019-04-30T08:52:31.317Z,14.50
2019-04-30T08:55:13.246Z,14.40
2019-04-30T08:57:33.367Z,14.50
2019-04-30T09:00:04.671Z,14.60
2019-04-30T09:02:34.935Z,15.00
2019-04-30T09:05:11.293Z,15.30
2019-04-30T09:07:41.508Z,15.30
2019-04-30T09:10:11.897Z,15.00
2019-04-30T09:12:42.255Z,14.70
2019-04-30T09:15:12.737Z,15.00
2019-04-30T09:17:42.895Z,15.60
2019-04-30T09:20:13.088Z,16.20
2019-04-30T09:22:43.432Z,16.90
2019-04-30T09:25:13.799Z,17.50
2019-04-30T09:27:43.973Z,17.70
2019-04-30T09:30:14.455Z,18.30
2019-04-30T09:32:44.663Z,18.60
2019-04-30T09:35:14.812Z,19.20
2019-04-30T09:37:45.007Z,19.70
2019-04-30T09:40:18.527Z,20.30
2019-04-30T09:42:48.748Z,21.00
2019-04-30T09:45:19.071Z,21.40
2019-04-30T09:47:50.596Z,21.90
2019-04-30T09:50:21.891Z,21.20
2019-04-30T09:52:52.343Z,21.70
2019-04-30T09:55:22.625Z,21.60
2019-04-30T09:57:52.776Z,21.70
2019-04-30T10:00:23.148Z,22.10
2019-04-30T10:02:53.311Z,22.00
2019-04-30T10:05:23.478Z,21.80
2019-04-30T10:07:53.730Z,22.00
2019-04-30T10:10:29.911Z,22.40
2019-04-30T10:13:00.092Z,22.50
2019-04-30T10:15:40.713Z,22.00
2019-04-30T10:18:11.047Z,20.80
2019-04-30T10:20:42.885Z,21.40
2019-04-30T10:23:13.075Z,21.30
2019-04-30T10:25:43.251Z,21.30
2019-04-30T10:28:13.635Z,21.10
2019-04-30T10:30:43.807Z,21.80
2019-04-30T10:33:13.978Z,22.40
2019-04-30T10:35:44.682Z,22.90
2019-04-30T10:38:15.205Z,23.10
2019-04-30T10:40:45.462Z,23.00
2019-04-30T10:43:15.684Z,22.90
2019-04-30T10:45:46.316Z,23.80
2019-04-30T10:48:16.522Z,23.60
2019-04-30T10:50:46.696Z,21.70
2019-04-30T10:53:18.120Z,20.40
2019-04-30T10:55:49.476Z,21.10
2019-04-30T10:58:19.711Z,22.30
2019-04-30T11:00:49.994Z,22.90
2019-04-30T11:03:22.976Z,22.60
2019-04-30T11:05:52.204Z,23.60
2019-04-30T11:08:22.368Z,23.70
2019-04-30T11:10:52.541Z,23.30
2019-04-30T11:13:22.720Z,24.10
2019-04-30T11:15:53.964Z,24.40
2019-04-30T11:18:24.443Z,24.40
2019-04-30T11:20:54.886Z,24.00
2019-04-30T11:23:25.545Z,23.50
2019-04-30T11:25:56.612Z,24.30
2019-04-30T11:28:27.774Z,24.20
2019-04-30T11:31:23.585Z,23.50
2019-04-30T11:33:54.863Z,23.70
2019-04-30T11:36:25.144Z,24.20
2019-04-30T11:38:55.323Z,24.20
2019-04-30T11:41:30.845Z,24.60
2019-04-30T11:43:59.355Z,24.40
2019-04-30T11:46:55.091Z,24.50
2019-04-30T11:49:25.271Z,24.10
2019-04-30T11:51:55.440Z,23.40
2019-04-30T11:54:25.648Z,22.60
2019-04-30T11:56:55.905Z,23.70
2019-04-30T11:59:26.080Z,24.30
2019-04-30T12:01:57.796Z,24.00
2019-04-30T12:04:29.686Z,24.60
2019-04-30T12:07:02.630Z,24.60
2019-04-30T12:09:54.515Z,23.90
2019-04-30T12:12:25.657Z,24.10
2019-04-30T12:14:55.826Z,24.90
2019-04-30T12:17:26.012Z,24.10
2019-04-30T12:19:56.159Z,22.30
2019-04-30T12:22:26.393Z,22.80
2019-04-30T12:25:03.241Z,23.00
2019-04-30T12:27:28.823Z,23.00
2019-04-30T12:29:59.448Z,23.30
2019-04-30T12:32:29.984Z,24.10
2019-04-30T12:35:00.177Z,24.40
2019-04-30T12:37:30.348Z,24.10
2019-04-30T12:40:00.525Z,23.50
2019-04-30T12:42:31.767Z,23.90
2019-04-30T12:45:02.015Z,22.90
2019-04-30T12:47:34.259Z,22.70
2019-04-30T12:50:12.184Z,23.40
2019-04-30T12:53:00.960Z,23.60
2019-04-30T12:55:39.230Z,23.20
2019-04-30T12:58:10.544Z,23.00
2019-04-30T13:00:40.847Z,23.10
2019-04-30T13:03:11.004Z,23.30
2019-04-30T13:05:41.196Z,22.20
2019-04-30T13:08:11.780Z,21.70
2019-04-30T13:10:44.193Z,21.90
2019-04-30T13:13:15.401Z,21.40
2019-04-30T13:15:45.933Z,21.40
2019-04-30T13:18:16.100Z,21.60
2019-04-30T13:20:46.339Z,21.20
2019-04-30T13:23:18.537Z,21.30
2019-04-30T13:25:51.501Z,21.40
2019-04-30T13:28:22.435Z,21.30
2019-04-30T13:30:53.701Z,21.10
2019-04-30T13:33:41.311Z,21.10
2019-04-30T13:36:11.824Z,21.00
2019-04-30T13:38:53.100Z,20.60
2019-04-30T13:41:46.095Z,20.10
2019-04-30T13:44:19.525Z,20.00
2019-04-30T13:46:49.769Z,20.10
2019-04-30T13:49:19.979Z,20.10
2019-04-30T13:51:50.204Z,20.60
2019-04-30T13:54:20.864Z,20.90
2019-04-30T13:56:51.256Z,21.00
2019-04-30T13:59:21.459Z,20.80
2019-04-30T14:01:51.648Z,20.70
2019-04-30T14:04:32.580Z,20.20
2019-04-30T14:07:20.429Z,20.60
2019-04-30T14:09:52.439Z,20.30
2019-04-30T14:12:22.816Z,20.10
2019-04-30T14:14:52.971Z,19.40
2019-04-30T14:17:23.161Z,19.00
2019-04-30T14:19:53.306Z,19.20
2019-04-30T14:22:23.819Z,19.30
2019-04-30T14:24:53.967Z,19.70
2019-04-30T14:27:24.180Z,20.00
2019-04-30T14:29:54.355Z,19.90
2019-04-30T14:32:25.615Z,20.00
2019-04-30T14:34:55.804Z,20.20
2019-04-30T14:37:26.030Z,19.90
2019-04-30T14:39:56.679Z,19.90
2019-04-30T14:42:27.762Z,20.00
2019-04-30T14:45:07.423Z,20.00
2019-04-30T14:47:45.482Z,19.90
2019-04-30T14:50:18.676Z,19.80
2019-04-30T14:53:07.984Z,19.70
2019-04-30T14:56:08.325Z,19.60
2019-04-30T14:58:50.240Z,19.20
2019-04-30T15:01:35.943Z,18.90
2019-04-30T15:04:06.148Z,19.10
2019-04-30T15:06:36.329Z,18.90
2019-04-30T15:09:08.273Z,19.00
2019-04-30T15:11:38.835Z,18.90
2019-04-30T15:14:10.132Z,19.00
2019-04-30T15:16:40.299Z,19.10
2019-04-30T15:19:11.287Z,19.30
2019-04-30T15:21:41.489Z,19.20
2019-04-30T15:24:19.173Z,18.90
2019-04-30T15:26:57.783Z,19.00
2019-04-30T15:29:21.527Z,18.90
2019-04-30T15:31:52.725Z,18.90
2019-04-30T15:34:22.913Z,18.90
2019-04-30T15:36:53.109Z,18.80
2019-04-30T15:39:40.626Z,18.60
2019-04-30T15:42:11.991Z,18.60
2019-04-30T15:44:45.478Z,18.70
2019-04-30T15:47:14.247Z,18.70
2019-04-30T15:49:44.488Z,18.60
2019-04-30T15:52:14.677Z,18.60
2019-04-30T15:54:44.971Z,18.50
2019-04-30T15:57:15.192Z,18.30
2019-04-30T15:59:46.450Z,18.40
2019-04-30T16:02:36.064Z,18.30
2019-04-30T16:05:31.899Z,18.20
2019-04-30T16:08:31.576Z,17.90
2019-04-30T16:11:10.787Z,17.60
2019-04-30T16:14:18.750Z,17.60
2019-04-30T16:16:59.975Z,17.50
2019-04-30T16:19:30.195Z,17.50
2019-04-30T16:22:00.397Z,17.40
2019-04-30T16:24:31.701Z,17.20
2019-04-30T16:27:03.515Z,17.20
2019-04-30T16:29:33.727Z,17.10
2019-04-30T16:32:04.068Z,17.00
2019-04-30T16:34:35.438Z,16.90
2019-04-30T16:37:05.726Z,16.80
2019-04-30T16:39:35.968Z,16.70
2019-04-30T16:42:06.436Z,16.50
2019-04-30T16:44:36.620Z,16.40
2019-04-30T16:47:13.639Z,16.40
2019-04-30T16:49:38.879Z,16.30
2019-04-30T16:52:09.244Z,16.20
2019-04-30T16:54:39.594Z,16.10
2019-04-30T16:57:11.663Z,16.10
2019-04-30T16:59:42.422Z,16.10
2019-04-30T17:02:13.551Z,16.10
2019-04-30T17:05:00.944Z,16.10
2019-04-30T17:07:41.481Z,15.90
2019-04-30T17:10:18.870Z,15.80
2019-04-30T17:13:05.682Z,15.70
2019-04-30T17:15:36.804Z,15.60
2019-04-30T17:18:09.995Z,15.60
2019-04-30T17:20:38.851Z,15.50
2019-04-30T17:23:09.467Z,15.50
2019-04-30T17:25:39.859Z,15.50
2019-04-30T17:28:10.036Z,15.40
2019-04-30T17:30:40.221Z,15.30
2019-04-30T17:33:10.405Z,15.20
2019-04-30T17:35:40.641Z,15.10
2019-04-30T17:38:10.846Z,15.00
2019-04-30T17:40:41.025Z,14.90
2019-04-30T17:43:11.271Z,14.90
2019-04-30T17:45:41.627Z,14.80
2019-04-30T17:48:12.803Z,14.70
2019-04-30T17:50:42.989Z,14.70
2019-04-30T17:53:13.182Z,14.60
2019-04-30T17:55:43.385Z,14.50
2019-04-30T17:58:13.618Z,14.50
2019-04-30T18:00:48.809Z,14.40
2019-04-30T18:03:19.086Z,14.40
2019-04-30T18:05:49.302Z,14.30
2019-04-30T18:08:20.073Z,14.20
2019-04-30T18:10:50.476Z,14.10
2019-04-30T18:13:20.665Z,14.10
2019-04-30T18:15:50.905Z,14.00
2019-04-30T18:18:39.912Z,14.00
2019-04-30T18:21:26.753Z,13.90
2019-04-30T18:24:15.951Z,13.90
2019-04-30T18:26:51.517Z,13.80
2019-04-30T18:29:21.876Z,13.60
2019-04-30T18:31:52.428Z,13.60
2019-04-30T18:34:22.710Z,13.50
2019-04-30T18:36:54.140Z,13.40
2019-04-30T18:39:24.359Z,13.30
2019-04-30T18:41:54.560Z,13.30
2019-04-30T18:44:24.856Z,13.20
2019-04-30T18:46:55.231Z,13.10
2019-04-30T18:49:25.996Z,13.10
2019-04-30T18:51:56.310Z,13.00
2019-04-30T18:54:28.597Z,12.90
2019-04-30T18:56:58.987Z,12.80
2019-04-30T18:59:29.332Z,12.80
2019-04-30T19:01:59.822Z,12.60
2019-04-30T19:04:30.091Z,12.60
2019-04-30T19:07:04.295Z,12.50
2019-04-30T19:09:45.050Z,12.50
2019-04-30T19:12:32.971Z,12.40
2019-04-30T19:15:21.143Z,12.40
2019-04-30T19:18:13.544Z,12.30
2019-04-30T19:20:46.590Z,12.20
2019-04-30T19:23:16.817Z,12.20
2019-04-30T19:25:48.545Z,12.20
2019-04-30T19:28:19.160Z,12.20
2019-04-30T19:30:57.643Z,12.20
2019-04-30T19:33:21.364Z,12.10
2019-04-30T19:35:51.630Z,12.10
2019-04-30T19:38:21.852Z,12.00
2019-04-30T19:40:52.158Z,11.90
2019-04-30T19:43:22.391Z,11.90
2019-04-30T19:45:52.639Z,11.90
2019-04-30T19:48:23.490Z,11.90
2019-04-30T19:50:54.047Z,11.90
2019-04-30T19:53:24.407Z,11.80
2019-04-30T19:55:54.646Z,11.70
2019-04-30T19:58:37.732Z,11.70
2019-04-30T20:00:59.496Z,11.70
2019-04-30T20:03:29.791Z,11.60
2019-04-30T20:06:00.008Z,11.60
2019-04-30T20:08:30.275Z,11.60
2019-04-30T20:11:03.627Z,11.50
2019-04-30T20:13:37.282Z,11.50
2019-04-30T20:16:05.691Z,11.50
2019-04-30T20:18:36.023Z,11.40
2019-04-30T20:21:10.168Z,11.40
2019-04-30T20:23:40.491Z,11.30
2019-04-30T20:26:10.673Z,11.30
2019-04-30T20:28:42.597Z,11.30
2019-04-30T20:31:12.878Z,11.20
2019-04-30T20:33:44.924Z,11.20
2019-04-30T20:36:15.140Z,11.20
2019-04-30T20:39:03.253Z,11.10
2019-04-30T20:41:36.597Z,11.10
2019-04-30T20:44:06.824Z,11.00
2019-04-30T20:46:39.176Z,11.00
2019-04-30T20:49:09.191Z,11.00
2019-04-30T20:51:52.203Z,10.90
2019-04-30T20:54:12.773Z,10.90
2019-04-30T20:56:43.037Z,10.80
2019-04-30T20:59:14.439Z,10.80
2019-04-30T21:01:44.657Z,10.80
2019-04-30T21:04:15.055Z,10.70
2019-04-30T21:06:45.278Z,10.60
2019-04-30T21:09:15.631Z,10.60
2019-04-30T21:11:45.981Z,10.50
2019-04-30T21:14:16.373Z,10.60
2019-04-30T21:16:46.556Z,10.60
2019-04-30T21:19:18.957Z,10.60
2019-04-30T21:21:49.804Z,10.50
2019-04-30T21:24:21.030Z,10.40
2019-04-30T21:26:51.254Z,10.40
2019-04-30T21:29:21.440Z,10.30
2019-04-30T21:31:59.684Z,10.30
2019-04-30T21:34:43.370Z,10.20
2019-04-30T21:37:13.726Z,10.20
2019-04-30T21:39:43.903Z,10.20
2019-04-30T21:42:21.377Z,10.20
2019-04-30T21:44:51.735Z,10.10
2019-04-30T21:47:24.382Z,10.10
2019-04-30T21:49:54.637Z,10.00
2019-04-30T21:52:24.820Z,10.00
2019-04-30T21:54:55.049Z,9.90
2019-04-30T21:57:25.287Z,9.90
2019-04-30T21:59:55.412Z,9.90
2019-04-30T22:02:25.616Z,9.90
2019-04-30T22:04:56.864Z,9.80
2019-04-30T22:07:29.339Z,9.80
2019-04-30T22:09:59.235Z,9.70
2019-04-30T22:12:31.188Z,9.70
2019-04-30T22:15:01.506Z,9.70
2019-04-30T22:17:34.215Z,9.60
2019-04-30T22:20:07.221Z,9.60
2019-04-30T22:25:30.954Z,9.60
2019-04-30T22:28:01.227Z,9.60
2019-04-30T22:30:31.405Z,9.50
2019-04-30T22:33:01.703Z,9.50
2019-04-30T22:35:54.811Z,9.40
2019-04-30T22:38:29.148Z,9.40
2019-04-30T22:40:59.428Z,9.40
2019-04-30T22:43:29.623Z,9.30
2019-04-30T22:46:09.631Z,9.30
2019-04-30T22:48:39.863Z,9.30
2019-04-30T22:51:10.060Z,9.20
2019-04-30T22:53:40.287Z,9.20
2019-04-30T22:56:11.432Z,9.20
2019-04-30T22:58:42.818Z,9.20
2019-04-30T23:01:32.414Z,9.10
2019-04-30T23:04:06.026Z,9.10
2019-04-30T23:06:36.209Z,9.10
2019-04-30T23:09:10.163Z,9.00
2019-04-30T23:11:40.697Z,9.00
2019-04-30T23:14:10.882Z,9.00
2019-04-30T23:16:41.041Z,8.90
2019-04-30T23:19:11.203Z,8.90
2019-04-30T23:21:41.368Z,8.90
2019-04-30T23:24:11.553Z,8.80
2019-04-30T23:26:41.728Z,8.80
2019-04-30T23:29:13.693Z,8.70
2019-04-30T23:31:43.874Z,8.70
2019-04-30T23:34:18.020Z,8.70
2019-04-30T23:36:46.002Z,8.70
2019-04-30T23:39:16.220Z,8.70
2019-04-30T23:41:46.406Z,8.60
2019-04-30T23:44:16.647Z,8.60
2019-04-30T23:46:46.828Z,8.60
2019-04-30T23:49:17.032Z,8.50
2019-04-30T23:51:47.207Z,8.50
2019-04-30T23:54:17.375Z,8.40
2019-04-30T23:56:47.544Z,8.40
2019-04-30T23:59:17.731Z,8.40
